sensor_id;sensor_type;location;lat;lon;timestamp;P1;durP1;ratioP1;P2;durP2;ratioP2
79755;SDS011;69239;50.678;12.280;2024-03-22T00:00:15;4.77;;;2.37;;
79755;SDS011;69239;50.678;12.280;2024-03-22T00:02:40;3.90;;;2.65;;
79755;SDS011;69239;50.678;12.280;2024-03-22T00:05:05;5.27;;;2.77;;
79755;SDS011;69239;50.678;12.280;2024-03-22T00:07:31;5.03;;;3.58;;
79755;SDS011;69239;50.678;12.280;2024-03-22T00:09:56;10.13;;;4.47;;
79755;SDS011;69239;50.678;12.280;2024-03-22T00:12:22;9.60;;;4.40;;
79755;SDS011;69239;50.678;12.280;2024-03-22T00:14:47;8.52;;;3.40;;
79755;SDS011;69239;50.678;12.280;2024-03-22T00:17:12;6.87;;;3.47;;
79755;SDS011;69239;50.678;12.280;2024-03-22T00:19:38;5.80;;;3.13;;
79755;SDS011;69239;50.678;12.280;2024-03-22T00:22:03;4.57;;;3.07;;
79755;SDS011;69239;50.678;12.280;2024-03-22T00:24:28;6.30;;;2.80;;
79755;SDS011;69239;50.678;12.280;2024-03-22T00:26:53;6.57;;;3.33;;
79755;SDS011;69239;50.678;12.280;2024-03-22T00:29:19;5.37;;;2.80;;
79755;SDS011;69239;50.678;12.280;2024-03-22T00:31:44;4.73;;;2.73;;
79755;SDS011;69239;50.678;12.280;2024-03-22T00:34:09;4.57;;;2.90;;
79755;SDS011;69239;50.678;12.280;2024-03-22T00:36:34;5.43;;;2.77;;
79755;SDS011;69239;50.678;12.280;2024-03-22T00:38:59;6.97;;;3.20;;
79755;SDS011;69239;50.678;12.280;2024-03-22T00:41:25;7.27;;;3.53;;
79755;SDS011;69239;50.678;12.280;2024-03-22T00:43:50;7.60;;;3.30;;
79755;SDS011;69239;50.678;12.280;2024-03-22T00:46:15;5.43;;;2.93;;
79755;SDS011;69239;50.678;12.280;2024-03-22T00:48:40;7.87;;;2.90;;
79755;SDS011;69239;50.678;12.280;2024-03-22T00:51:06;6.03;;;3.13;;
79755;SDS011;69239;50.678;12.280;2024-03-22T00:53:31;4.97;;;2.73;;
79755;SDS011;69239;50.678;12.280;2024-03-22T00:55:56;9.17;;;3.70;;
79755;SDS011;69239;50.678;12.280;2024-03-22T00:58:23;6.20;;;3.13;;
79755;SDS011;69239;50.678;12.280;2024-03-22T01:00:49;6.72;;;3.60;;
79755;SDS011;69239;50.678;12.280;2024-03-22T01:03:14;5.47;;;3.10;;
79755;SDS011;69239;50.678;12.280;2024-03-22T01:05:39;5.83;;;3.63;;
79755;SDS011;69239;50.678;12.280;2024-03-22T01:08:07;4.40;;;2.80;;
79755;SDS011;69239;50.678;12.280;2024-03-22T01:10:32;8.50;;;2.73;;
79755;SDS011;69239;50.678;12.280;2024-03-22T01:12:59;4.10;;;2.30;;
79755;SDS011;69239;50.678;12.280;2024-03-22T01:15:25;5.80;;;3.10;;
79755;SDS011;69239;50.678;12.280;2024-03-22T01:17:50;4.50;;;2.83;;
79755;SDS011;69239;50.678;12.280;2024-03-22T01:20:15;5.13;;;2.50;;
79755;SDS011;69239;50.678;12.280;2024-03-22T01:22:41;6.33;;;3.57;;
79755;SDS011;69239;50.678;12.280;2024-03-22T01:25:06;7.67;;;3.40;;
79755;SDS011;69239;50.678;12.280;2024-03-22T01:27:32;8.93;;;3.30;;
79755;SDS011;69239;50.678;12.280;2024-03-22T01:29:57;6.30;;;2.70;;
79755;SDS011;69239;50.678;12.280;2024-03-22T01:32:22;4.83;;;2.97;;
79755;SDS011;69239;50.678;12.280;2024-03-22T01:34:48;5.72;;;2.97;;
79755;SDS011;69239;50.678;12.280;2024-03-22T01:37:15;6.20;;;3.22;;
79755;SDS011;69239;50.678;12.280;2024-03-22T01:39:40;7.47;;;3.23;;
79755;SDS011;69239;50.678;12.280;2024-03-22T01:42:05;8.53;;;3.63;;
79755;SDS011;69239;50.678;12.280;2024-03-22T01:44:34;4.63;;;2.60;;
79755;SDS011;69239;50.678;12.280;2024-03-22T01:46:59;4.75;;;2.40;;
79755;SDS011;69239;50.678;12.280;2024-03-22T01:49:25;4.00;;;2.65;;
79755;SDS011;69239;50.678;12.280;2024-03-22T01:51:50;6.00;;;2.75;;
79755;SDS011;69239;50.678;12.280;2024-03-22T01:54:16;5.38;;;3.20;;
79755;SDS011;69239;50.678;12.280;2024-03-22T01:56:42;7.03;;;3.55;;
79755;SDS011;69239;50.678;12.280;2024-03-22T01:59:09;5.60;;;3.22;;
79755;SDS011;69239;50.678;12.280;2024-03-22T02:01:34;5.67;;;2.83;;
79755;SDS011;69239;50.678;12.280;2024-03-22T02:04:00;4.35;;;3.00;;
79755;SDS011;69239;50.678;12.280;2024-03-22T02:06:25;5.15;;;3.10;;
79755;SDS011;69239;50.678;12.280;2024-03-22T02:08:51;5.38;;;3.58;;
79755;SDS011;69239;50.678;12.280;2024-03-22T02:11:16;7.27;;;3.37;;
79755;SDS011;69239;50.678;12.280;2024-03-22T02:13:41;7.25;;;2.97;;
79755;SDS011;69239;50.678;12.280;2024-03-22T02:16:08;4.70;;;3.13;;
79755;SDS011;69239;50.678;12.280;2024-03-22T02:18:33;7.45;;;3.22;;
79755;SDS011;69239;50.678;12.280;2024-03-22T02:20:58;3.83;;;2.80;;
79755;SDS011;69239;50.678;12.280;2024-03-22T02:23:33;4.78;;;2.67;;
79755;SDS011;69239;50.678;12.280;2024-03-22T02:28:27;7.80;;;3.80;;
79755;SDS011;69239;50.678;12.280;2024-03-22T02:30:53;6.32;;;3.38;;
79755;SDS011;69239;50.678;12.280;2024-03-22T02:33:18;6.32;;;3.63;;
79755;SDS011;69239;50.678;12.280;2024-03-22T02:35:45;8.03;;;4.47;;
79755;SDS011;69239;50.678;12.280;2024-03-22T02:38:11;8.38;;;4.78;;
79755;SDS011;69239;50.678;12.280;2024-03-22T02:40:37;6.73;;;4.07;;
79755;SDS011;69239;50.678;12.280;2024-03-22T02:43:02;5.90;;;4.30;;
79755;SDS011;69239;50.678;12.280;2024-03-22T02:45:27;9.10;;;4.40;;
79755;SDS011;69239;50.678;12.280;2024-03-22T02:47:52;8.43;;;4.20;;
79755;SDS011;69239;50.678;12.280;2024-03-22T02:50:18;8.27;;;4.73;;
79755;SDS011;69239;50.678;12.280;2024-03-22T02:52:43;8.87;;;4.70;;
79755;SDS011;69239;50.678;12.280;2024-03-22T02:55:08;8.50;;;4.67;;
79755;SDS011;69239;50.678;12.280;2024-03-22T02:57:33;6.50;;;4.70;;
79755;SDS011;69239;50.678;12.280;2024-03-22T03:00:00;9.77;;;4.93;;
79755;SDS011;69239;50.678;12.280;2024-03-22T03:02:25;9.60;;;4.78;;
79755;SDS011;69239;50.678;12.280;2024-03-22T03:04:50;10.57;;;4.90;;
79755;SDS011;69239;50.678;12.280;2024-03-22T03:07:16;8.37;;;4.50;;
79755;SDS011;69239;50.678;12.280;2024-03-22T03:09:41;7.45;;;4.55;;
79755;SDS011;69239;50.678;12.280;2024-03-22T03:12:06;7.53;;;4.53;;
79755;SDS011;69239;50.678;12.280;2024-03-22T03:14:32;9.43;;;4.57;;
79755;SDS011;69239;50.678;12.280;2024-03-22T03:16:57;7.57;;;4.33;;
79755;SDS011;69239;50.678;12.280;2024-03-22T03:19:22;9.83;;;4.53;;
79755;SDS011;69239;50.678;12.280;2024-03-22T03:21:47;7.50;;;4.17;;
79755;SDS011;69239;50.678;12.280;2024-03-22T03:24:12;6.30;;;4.10;;
79755;SDS011;69239;50.678;12.280;2024-03-22T03:26:38;8.27;;;4.43;;
79755;SDS011;69239;50.678;12.280;2024-03-22T03:29:03;7.60;;;4.43;;
79755;SDS011;69239;50.678;12.280;2024-03-22T03:31:29;8.45;;;4.82;;
79755;SDS011;69239;50.678;12.280;2024-03-22T03:33:55;8.37;;;4.57;;
79755;SDS011;69239;50.678;12.280;2024-03-22T03:36:20;6.77;;;4.00;;
79755;SDS011;69239;50.678;12.280;2024-03-22T03:38:45;8.77;;;4.77;;
79755;SDS011;69239;50.678;12.280;2024-03-22T03:41:10;11.30;;;4.93;;
79755;SDS011;69239;50.678;12.280;2024-03-22T03:43:35;9.33;;;4.60;;
79755;SDS011;69239;50.678;12.280;2024-03-22T03:46:01;6.70;;;4.03;;
79755;SDS011;69239;50.678;12.280;2024-03-22T03:48:26;10.10;;;4.60;;
79755;SDS011;69239;50.678;12.280;2024-03-22T03:50:54;8.50;;;4.40;;
79755;SDS011;69239;50.678;12.280;2024-03-22T03:53:24;11.18;;;5.20;;
79755;SDS011;69239;50.678;12.280;2024-03-22T03:55:49;9.63;;;4.63;;
79755;SDS011;69239;50.678;12.280;2024-03-22T03:58:14;9.37;;;4.43;;
79755;SDS011;69239;50.678;12.280;2024-03-22T04:00:39;9.77;;;4.30;;
79755;SDS011;69239;50.678;12.280;2024-03-22T04:03:04;6.73;;;4.23;;
79755;SDS011;69239;50.678;12.280;2024-03-22T04:05:30;10.57;;;5.23;;
79755;SDS011;69239;50.678;12.280;2024-03-22T04:07:56;9.27;;;5.37;;
79755;SDS011;69239;50.678;12.280;2024-03-22T04:10:21;7.88;;;4.55;;
79755;SDS011;69239;50.678;12.280;2024-03-22T04:12:47;8.20;;;4.83;;
79755;SDS011;69239;50.678;12.280;2024-03-22T04:15:13;9.52;;;4.88;;
79755;SDS011;69239;50.678;12.280;2024-03-22T04:17:38;8.77;;;4.83;;
79755;SDS011;69239;50.678;12.280;2024-03-22T04:20:04;8.57;;;5.10;;
79755;SDS011;69239;50.678;12.280;2024-03-22T04:22:30;9.60;;;5.07;;
79755;SDS011;69239;50.678;12.280;2024-03-22T04:24:55;8.47;;;5.53;;
79755;SDS011;69239;50.678;12.280;2024-03-22T04:27:20;8.27;;;4.90;;
79755;SDS011;69239;50.678;12.280;2024-03-22T04:29:49;10.20;;;4.97;;
79755;SDS011;69239;50.678;12.280;2024-03-22T04:32:14;7.53;;;4.25;;
79755;SDS011;69239;50.678;12.280;2024-03-22T04:34:42;9.10;;;4.07;;
79755;SDS011;69239;50.678;12.280;2024-03-22T04:37:08;5.95;;;4.53;;
79755;SDS011;69239;50.678;12.280;2024-03-22T04:39:34;8.05;;;3.92;;
79755;SDS011;69239;50.678;12.280;2024-03-22T04:41:59;6.45;;;4.15;;
79755;SDS011;69239;50.678;12.280;2024-03-22T04:44:24;8.00;;;4.40;;
79755;SDS011;69239;50.678;12.280;2024-03-22T04:46:50;9.80;;;4.40;;
79755;SDS011;69239;50.678;12.280;2024-03-22T04:49:15;8.23;;;4.67;;
79755;SDS011;69239;50.678;12.280;2024-03-22T04:51:40;7.67;;;4.43;;
79755;SDS011;69239;50.678;12.280;2024-03-22T04:54:07;9.52;;;4.50;;
79755;SDS011;69239;50.678;12.280;2024-03-22T04:56:33;8.27;;;4.47;;
79755;SDS011;69239;50.678;12.280;2024-03-22T04:58:58;9.23;;;4.90;;
79755;SDS011;69239;50.678;12.280;2024-03-22T05:01:23;8.33;;;4.33;;
79755;SDS011;69239;50.678;12.280;2024-03-22T05:03:49;7.93;;;4.80;;
79755;SDS011;69239;50.678;12.280;2024-03-22T05:06:15;7.32;;;4.47;;
79755;SDS011;69239;50.678;12.280;2024-03-22T05:08:41;7.07;;;4.07;;
79755;SDS011;69239;50.678;12.280;2024-03-22T05:11:06;8.50;;;4.43;;
79755;SDS011;69239;50.678;12.280;2024-03-22T05:13:32;8.63;;;4.15;;
79755;SDS011;69239;50.678;12.280;2024-03-22T05:15:57;8.35;;;4.80;;
79755;SDS011;69239;50.678;12.280;2024-03-22T05:18:23;6.80;;;4.30;;
79755;SDS011;69239;50.678;12.280;2024-03-22T05:20:49;6.68;;;4.28;;
79755;SDS011;69239;50.678;12.280;2024-03-22T05:23:16;7.03;;;4.28;;
79755;SDS011;69239;50.678;12.280;2024-03-22T05:25:43;7.47;;;4.63;;
79755;SDS011;69239;50.678;12.280;2024-03-22T05:28:08;9.05;;;4.88;;
79755;SDS011;69239;50.678;12.280;2024-03-22T05:30:33;8.40;;;4.57;;
79755;SDS011;69239;50.678;12.280;2024-03-22T05:32:58;9.93;;;4.73;;
79755;SDS011;69239;50.678;12.280;2024-03-22T05:35:26;11.07;;;5.20;;
79755;SDS011;69239;50.678;12.280;2024-03-22T05:37:53;8.77;;;4.93;;
79755;SDS011;69239;50.678;12.280;2024-03-22T05:40:18;9.32;;;5.10;;
79755;SDS011;69239;50.678;12.280;2024-03-22T05:42:44;8.17;;;4.77;;
79755;SDS011;69239;50.678;12.280;2024-03-22T05:45:09;8.10;;;4.63;;
79755;SDS011;69239;50.678;12.280;2024-03-22T05:47:34;7.80;;;4.87;;
79755;SDS011;69239;50.678;12.280;2024-03-22T05:50:00;9.23;;;5.00;;
79755;SDS011;69239;50.678;12.280;2024-03-22T05:52:26;9.63;;;4.65;;
79755;SDS011;69239;50.678;12.280;2024-03-22T05:54:52;7.72;;;4.15;;
79755;SDS011;69239;50.678;12.280;2024-03-22T05:57:17;8.30;;;4.60;;
79755;SDS011;69239;50.678;12.280;2024-03-22T05:59:43;7.70;;;4.57;;
79755;SDS011;69239;50.678;12.280;2024-03-22T06:02:08;9.80;;;4.93;;
79755;SDS011;69239;50.678;12.280;2024-03-22T06:04:33;7.00;;;4.83;;
79755;SDS011;69239;50.678;12.280;2024-03-22T06:06:59;10.73;;;5.57;;
79755;SDS011;69239;50.678;12.280;2024-03-22T06:09:25;7.72;;;5.20;;
79755;SDS011;69239;50.678;12.280;2024-03-22T06:12:10;9.75;;;5.03;;
79755;SDS011;69239;50.678;12.280;2024-03-22T06:14:36;12.43;;;6.32;;
79755;SDS011;69239;50.678;12.280;2024-03-22T06:17:03;11.18;;;5.55;;
79755;SDS011;69239;50.678;12.280;2024-03-22T06:19:29;10.77;;;5.45;;
79755;SDS011;69239;50.678;12.280;2024-03-22T06:21:55;9.23;;;4.90;;
79755;SDS011;69239;50.678;12.280;2024-03-22T06:24:20;11.63;;;6.60;;
79755;SDS011;69239;50.678;12.280;2024-03-22T06:26:47;7.80;;;5.07;;
79755;SDS011;69239;50.678;12.280;2024-03-22T06:29:14;8.63;;;5.15;;
79755;SDS011;69239;50.678;12.280;2024-03-22T06:31:41;11.27;;;5.50;;
79755;SDS011;69239;50.678;12.280;2024-03-22T06:34:06;9.80;;;5.20;;
79755;SDS011;69239;50.678;12.280;2024-03-22T06:36:32;8.70;;;4.67;;
79755;SDS011;69239;50.678;12.280;2024-03-22T06:38:57;9.25;;;5.30;;
79755;SDS011;69239;50.678;12.280;2024-03-22T06:41:24;10.32;;;5.45;;
79755;SDS011;69239;50.678;12.280;2024-03-22T06:43:49;9.27;;;5.15;;
79755;SDS011;69239;50.678;12.280;2024-03-22T06:46:15;7.10;;;4.38;;
79755;SDS011;69239;50.678;12.280;2024-03-22T06:48:40;8.50;;;5.15;;
79755;SDS011;69239;50.678;12.280;2024-03-22T06:51:05;8.53;;;5.00;;
79755;SDS011;69239;50.678;12.280;2024-03-22T06:53:30;10.33;;;4.90;;
79755;SDS011;69239;50.678;12.280;2024-03-22T06:55:56;7.30;;;4.33;;
79755;SDS011;69239;50.678;12.280;2024-03-22T06:58:21;9.00;;;4.77;;
79755;SDS011;69239;50.678;12.280;2024-03-22T07:00:46;8.23;;;4.93;;
79755;SDS011;69239;50.678;12.280;2024-03-22T07:03:11;9.43;;;4.83;;
79755;SDS011;69239;50.678;12.280;2024-03-22T07:05:37;8.07;;;4.83;;
79755;SDS011;69239;50.678;12.280;2024-03-22T07:08:02;8.30;;;4.07;;
79755;SDS011;69239;50.678;12.280;2024-03-22T07:10:27;6.70;;;4.47;;
79755;SDS011;69239;50.678;12.280;2024-03-22T07:12:54;7.43;;;4.70;;
79755;SDS011;69239;50.678;12.280;2024-03-22T07:15:24;8.40;;;5.28;;
79755;SDS011;69239;50.678;12.280;2024-03-22T07:17:50;8.65;;;5.13;;
79755;SDS011;69239;50.678;12.280;2024-03-22T07:20:16;9.23;;;6.07;;
79755;SDS011;69239;50.678;12.280;2024-03-22T07:22:41;9.13;;;6.40;;
79755;SDS011;69239;50.678;12.280;2024-03-22T07:25:06;9.38;;;5.47;;
79755;SDS011;69239;50.678;12.280;2024-03-22T07:27:34;9.45;;;5.45;;
79755;SDS011;69239;50.678;12.280;2024-03-22T07:29:59;11.02;;;6.55;;
79755;SDS011;69239;50.678;12.280;2024-03-22T07:32:24;8.27;;;5.70;;
79755;SDS011;69239;50.678;12.280;2024-03-22T07:34:50;9.85;;;6.40;;
79755;SDS011;69239;50.678;12.280;2024-03-22T07:37:15;9.80;;;6.03;;
79755;SDS011;69239;50.678;12.280;2024-03-22T07:39:41;11.10;;;6.80;;
79755;SDS011;69239;50.678;12.280;2024-03-22T07:42:06;11.20;;;6.37;;
79755;SDS011;69239;50.678;12.280;2024-03-22T07:44:31;11.50;;;6.47;;
79755;SDS011;69239;50.678;12.280;2024-03-22T07:46:57;9.90;;;6.47;;
79755;SDS011;69239;50.678;12.280;2024-03-22T07:49:22;11.37;;;6.73;;
79755;SDS011;69239;50.678;12.280;2024-03-22T07:51:47;11.40;;;7.50;;
79755;SDS011;69239;50.678;12.280;2024-03-22T07:54:13;13.77;;;6.63;;
79755;SDS011;69239;50.678;12.280;2024-03-22T07:56:39;12.80;;;6.75;;
79755;SDS011;69239;50.678;12.280;2024-03-22T07:59:04;11.82;;;7.25;;
79755;SDS011;69239;50.678;12.280;2024-03-22T08:01:29;12.60;;;7.82;;
79755;SDS011;69239;50.678;12.280;2024-03-22T08:03:55;12.30;;;6.55;;
79755;SDS011;69239;50.678;12.280;2024-03-22T08:06:20;14.87;;;7.13;;
79755;SDS011;69239;50.678;12.280;2024-03-22T08:08:46;13.68;;;6.60;;
79755;SDS011;69239;50.678;12.280;2024-03-22T08:11:12;13.73;;;6.70;;
79755;SDS011;69239;50.678;12.280;2024-03-22T08:13:37;19.65;;;7.68;;
79755;SDS011;69239;50.678;12.280;2024-03-22T08:16:03;15.32;;;5.68;;
79755;SDS011;69239;50.678;12.280;2024-03-22T08:18:30;15.43;;;6.90;;
79755;SDS011;69239;50.678;12.280;2024-03-22T08:20:56;14.70;;;7.45;;
79755;SDS011;69239;50.678;12.280;2024-03-22T08:23:21;16.33;;;8.27;;
79755;SDS011;69239;50.678;12.280;2024-03-22T08:25:47;13.75;;;7.00;;
79755;SDS011;69239;50.678;12.280;2024-03-22T08:28:14;15.10;;;7.03;;
79755;SDS011;69239;50.678;12.280;2024-03-22T08:30:40;16.13;;;8.98;;
79755;SDS011;69239;50.678;12.280;2024-03-22T08:33:05;15.40;;;7.83;;
79755;SDS011;69239;50.678;12.280;2024-03-22T08:35:30;15.70;;;8.07;;
79755;SDS011;69239;50.678;12.280;2024-03-22T08:37:56;15.47;;;9.13;;
79755;SDS011;69239;50.678;12.280;2024-03-22T08:40:21;16.52;;;8.88;;
79755;SDS011;69239;50.678;12.280;2024-03-22T08:42:48;17.30;;;9.35;;
79755;SDS011;69239;50.678;12.280;2024-03-22T08:45:13;16.95;;;9.07;;
79755;SDS011;69239;50.678;12.280;2024-03-22T08:47:38;17.67;;;8.77;;
79755;SDS011;69239;50.678;12.280;2024-03-22T08:50:06;18.50;;;9.35;;
79755;SDS011;69239;50.678;12.280;2024-03-22T08:52:33;18.73;;;8.32;;
79755;SDS011;69239;50.678;12.280;2024-03-22T08:55:00;18.65;;;8.55;;
79755;SDS011;69239;50.678;12.280;2024-03-22T08:57:25;16.10;;;8.98;;
79755;SDS011;69239;50.678;12.280;2024-03-22T08:59:51;16.47;;;7.47;;
79755;SDS011;69239;50.678;12.280;2024-03-22T09:02:16;16.60;;;8.57;;
79755;SDS011;69239;50.678;12.280;2024-03-22T09:04:41;21.50;;;11.00;;
79755;SDS011;69239;50.678;12.280;2024-03-22T09:07:07;21.25;;;10.07;;
79755;SDS011;69239;50.678;12.280;2024-03-22T09:09:32;20.13;;;9.13;;
79755;SDS011;69239;50.678;12.280;2024-03-22T09:11:58;19.90;;;9.07;;
79755;SDS011;69239;50.678;12.280;2024-03-22T09:14:23;23.00;;;10.10;;
79755;SDS011;69239;50.678;12.280;2024-03-22T09:16:49;21.05;;;9.80;;
79755;SDS011;69239;50.678;12.280;2024-03-22T09:19:14;18.53;;;9.43;;
79755;SDS011;69239;50.678;12.280;2024-03-22T09:21:40;17.33;;;8.18;;
79755;SDS011;69239;50.678;12.280;2024-03-22T09:24:05;20.93;;;8.50;;
79755;SDS011;69239;50.678;12.280;2024-03-22T09:26:31;18.42;;;8.52;;
79755;SDS011;69239;50.678;12.280;2024-03-22T09:28:57;21.02;;;9.55;;
79755;SDS011;69239;50.678;12.280;2024-03-22T09:31:22;18.45;;;9.38;;
79755;SDS011;69239;50.678;12.280;2024-03-22T09:33:48;17.57;;;9.10;;
79755;SDS011;69239;50.678;12.280;2024-03-22T09:36:13;19.70;;;8.87;;
79755;SDS011;69239;50.678;12.280;2024-03-22T09:38:38;20.23;;;9.70;;
79755;SDS011;69239;50.678;12.280;2024-03-22T09:41:03;19.23;;;8.80;;
79755;SDS011;69239;50.678;12.280;2024-03-22T09:43:30;17.77;;;8.55;;
79755;SDS011;69239;50.678;12.280;2024-03-22T09:45:57;17.73;;;9.23;;
79755;SDS011;69239;50.678;12.280;2024-03-22T09:48:23;19.58;;;9.25;;
79755;SDS011;69239;50.678;12.280;2024-03-22T09:50:49;19.38;;;10.00;;
79755;SDS011;69239;50.678;12.280;2024-03-22T09:53:18;18.20;;;9.35;;
79755;SDS011;69239;50.678;12.280;2024-03-22T09:55:44;15.15;;;7.43;;
79755;SDS011;69239;50.678;12.280;2024-03-22T09:58:10;18.27;;;9.65;;
79755;SDS011;69239;50.678;12.280;2024-03-22T10:00:35;19.27;;;9.67;;
79755;SDS011;69239;50.678;12.280;2024-03-22T10:03:00;27.17;;;10.10;;
79755;SDS011;69239;50.678;12.280;2024-03-22T10:05:27;20.30;;;9.48;;
79755;SDS011;69239;50.678;12.280;2024-03-22T10:07:52;15.27;;;7.73;;
79755;SDS011;69239;50.678;12.280;2024-03-22T10:10:19;17.98;;;9.23;;
79755;SDS011;69239;50.678;12.280;2024-03-22T10:12:46;19.25;;;8.45;;
79755;SDS011;69239;50.678;12.280;2024-03-22T10:15:12;16.48;;;8.48;;
79755;SDS011;69239;50.678;12.280;2024-03-22T10:17:41;17.08;;;9.00;;
79755;SDS011;69239;50.678;12.280;2024-03-22T10:20:07;16.65;;;8.27;;
79755;SDS011;69239;50.678;12.280;2024-03-22T10:22:57;21.73;;;9.20;;
79755;SDS011;69239;50.678;12.280;2024-03-22T10:25:25;14.85;;;6.90;;
79755;SDS011;69239;50.678;12.280;2024-03-22T10:27:51;14.88;;;7.68;;
79755;SDS011;69239;50.678;12.280;2024-03-22T10:30:16;16.50;;;8.20;;
79755;SDS011;69239;50.678;12.280;2024-03-22T10:32:42;19.20;;;8.82;;
79755;SDS011;69239;50.678;12.280;2024-03-22T10:35:11;15.52;;;7.97;;
79755;SDS011;69239;50.678;12.280;2024-03-22T10:37:38;14.07;;;7.13;;
79755;SDS011;69239;50.678;12.280;2024-03-22T10:40:04;16.70;;;7.97;;
79755;SDS011;69239;50.678;12.280;2024-03-22T10:42:36;12.77;;;7.03;;
79755;SDS011;69239;50.678;12.280;2024-03-22T10:45:02;15.25;;;8.63;;
79755;SDS011;69239;50.678;12.280;2024-03-22T10:47:38;17.27;;;8.60;;
79755;SDS011;69239;50.678;12.280;2024-03-22T10:52:54;14.80;;;7.18;;
79755;SDS011;69239;50.678;12.280;2024-03-22T10:55:27;11.15;;;6.07;;
79755;SDS011;69239;50.678;12.280;2024-03-22T10:57:56;15.10;;;6.65;;
79755;SDS011;69239;50.678;12.280;2024-03-22T11:00:29;11.90;;;6.43;;
79755;SDS011;69239;50.678;12.280;2024-03-22T11:02:54;13.20;;;6.68;;
79755;SDS011;69239;50.678;12.280;2024-03-22T11:05:20;10.63;;;4.55;;
79755;SDS011;69239;50.678;12.280;2024-03-22T11:07:45;11.20;;;5.70;;
79755;SDS011;69239;50.678;12.280;2024-03-22T11:10:14;11.45;;;6.10;;
79755;SDS011;69239;50.678;12.280;2024-03-22T11:12:40;12.60;;;5.43;;
79755;SDS011;69239;50.678;12.280;2024-03-22T11:15:06;13.88;;;6.55;;
79755;SDS011;69239;50.678;12.280;2024-03-22T11:17:32;12.57;;;6.15;;
79755;SDS011;69239;50.678;12.280;2024-03-22T11:19:57;10.95;;;6.13;;
79755;SDS011;69239;50.678;12.280;2024-03-22T11:22:22;10.30;;;6.17;;
79755;SDS011;69239;50.678;12.280;2024-03-22T11:24:50;12.57;;;6.38;;
79755;SDS011;69239;50.678;12.280;2024-03-22T11:27:15;13.90;;;6.80;;
79755;SDS011;69239;50.678;12.280;2024-03-22T11:29:41;12.07;;;5.78;;
79755;SDS011;69239;50.678;12.280;2024-03-22T11:32:09;11.83;;;6.60;;
79755;SDS011;69239;50.678;12.280;2024-03-22T11:34:35;12.75;;;6.80;;
79755;SDS011;69239;50.678;12.280;2024-03-22T11:37:01;12.57;;;6.13;;
79755;SDS011;69239;50.678;12.280;2024-03-22T11:39:27;13.60;;;6.73;;
79755;SDS011;69239;50.678;12.280;2024-03-22T11:41:52;11.20;;;6.13;;
79755;SDS011;69239;50.678;12.280;2024-03-22T11:44:17;10.38;;;6.38;;
79755;SDS011;69239;50.678;12.280;2024-03-22T11:46:44;12.38;;;7.30;;
79755;SDS011;69239;50.678;12.280;2024-03-22T11:49:10;12.35;;;6.75;;
79755;SDS011;69239;50.678;12.280;2024-03-22T11:51:36;13.45;;;6.50;;
79755;SDS011;69239;50.678;12.280;2024-03-22T11:54:02;14.07;;;8.10;;
79755;SDS011;69239;50.678;12.280;2024-03-22T11:56:28;13.10;;;6.78;;
79755;SDS011;69239;50.678;12.280;2024-03-22T11:58:59;13.73;;;6.38;;
79755;SDS011;69239;50.678;12.280;2024-03-22T12:01:25;13.15;;;7.22;;
79755;SDS011;69239;50.678;12.280;2024-03-22T12:03:51;13.82;;;7.45;;
79755;SDS011;69239;50.678;12.280;2024-03-22T12:06:17;14.65;;;6.45;;
79755;SDS011;69239;50.678;12.280;2024-03-22T12:08:42;11.20;;;6.33;;
79755;SDS011;69239;50.678;12.280;2024-03-22T12:11:08;13.53;;;7.47;;
79755;SDS011;69239;50.678;12.280;2024-03-22T12:13:34;14.38;;;7.82;;
79755;SDS011;69239;50.678;12.280;2024-03-22T12:16:00;13.98;;;7.57;;
79755;SDS011;69239;50.678;12.280;2024-03-22T12:18:26;12.90;;;7.13;;
79755;SDS011;69239;50.678;12.280;2024-03-22T12:20:51;12.27;;;6.40;;
79755;SDS011;69239;50.678;12.280;2024-03-22T12:23:16;12.90;;;7.38;;
79755;SDS011;69239;50.678;12.280;2024-03-22T12:25:42;13.23;;;7.93;;
79755;SDS011;69239;50.678;12.280;2024-03-22T12:28:07;14.10;;;7.90;;
79755;SDS011;69239;50.678;12.280;2024-03-22T12:30:32;11.13;;;7.00;;
79755;SDS011;69239;50.678;12.280;2024-03-22T12:32:58;13.60;;;6.95;;
79755;SDS011;69239;50.678;12.280;2024-03-22T12:35:25;16.93;;;8.80;;
79755;SDS011;69239;50.678;12.280;2024-03-22T12:37:51;11.57;;;7.38;;
79755;SDS011;69239;50.678;12.280;2024-03-22T12:40:16;14.13;;;7.70;;
79755;SDS011;69239;50.678;12.280;2024-03-22T12:42:41;13.80;;;7.57;;
79755;SDS011;69239;50.678;12.280;2024-03-22T12:45:06;11.73;;;7.40;;
79755;SDS011;69239;50.678;12.280;2024-03-22T12:47:32;13.68;;;7.95;;
79755;SDS011;69239;50.678;12.280;2024-03-22T12:49:57;13.05;;;7.80;;
79755;SDS011;69239;50.678;12.280;2024-03-22T12:52:23;9.90;;;6.30;;
79755;SDS011;69239;50.678;12.280;2024-03-22T12:54:48;14.37;;;7.23;;
79755;SDS011;69239;50.678;12.280;2024-03-22T12:57:14;14.02;;;8.60;;
79755;SDS011;69239;50.678;12.280;2024-03-22T12:59:40;13.60;;;8.60;;
79755;SDS011;69239;50.678;12.280;2024-03-22T13:02:05;14.23;;;8.23;;
79755;SDS011;69239;50.678;12.280;2024-03-22T13:04:32;13.45;;;7.85;;
79755;SDS011;69239;50.678;12.280;2024-03-22T13:06:57;14.63;;;8.65;;
79755;SDS011;69239;50.678;12.280;2024-03-22T13:09:23;15.40;;;7.73;;
79755;SDS011;69239;50.678;12.280;2024-03-22T13:11:48;13.80;;;8.70;;
79755;SDS011;69239;50.678;12.280;2024-03-22T13:14:14;14.80;;;8.30;;
79755;SDS011;69239;50.678;12.280;2024-03-22T13:16:40;13.73;;;8.05;;
79755;SDS011;69239;50.678;12.280;2024-03-22T13:19:05;14.68;;;9.25;;
79755;SDS011;69239;50.678;12.280;2024-03-22T13:21:33;13.23;;;8.43;;
79755;SDS011;69239;50.678;12.280;2024-03-22T13:23:58;16.40;;;8.73;;
79755;SDS011;69239;50.678;12.280;2024-03-22T13:26:23;15.50;;;8.87;;
79755;SDS011;69239;50.678;12.280;2024-03-22T13:28:49;13.23;;;7.80;;
79755;SDS011;69239;50.678;12.280;2024-03-22T13:31:14;12.57;;;8.30;;
79755;SDS011;69239;50.678;12.280;2024-03-22T13:33:40;13.43;;;9.52;;
79755;SDS011;69239;50.678;12.280;2024-03-22T13:36:05;13.43;;;8.98;;
79755;SDS011;69239;50.678;12.280;2024-03-22T13:38:31;12.40;;;7.93;;
79755;SDS011;69239;50.678;12.280;2024-03-22T13:40:57;14.00;;;8.80;;
79755;SDS011;69239;50.678;12.280;2024-03-22T13:43:23;15.10;;;8.50;;
79755;SDS011;69239;50.678;12.280;2024-03-22T13:45:51;13.40;;;8.32;;
79755;SDS011;69239;50.678;12.280;2024-03-22T13:48:21;11.98;;;7.72;;
79755;SDS011;69239;50.678;12.280;2024-03-22T13:50:52;16.67;;;8.93;;
79755;SDS011;69239;50.678;12.280;2024-03-22T13:53:21;17.55;;;9.02;;
79755;SDS011;69239;50.678;12.280;2024-03-22T13:55:51;16.63;;;9.60;;
79755;SDS011;69239;50.678;12.280;2024-03-22T13:58:19;13.40;;;8.32;;
79755;SDS011;69239;50.678;12.280;2024-03-22T14:00:44;13.47;;;8.10;;
79755;SDS011;69239;50.678;12.280;2024-03-22T14:03:09;14.73;;;8.48;;
79755;SDS011;69239;50.678;12.280;2024-03-22T14:05:35;13.18;;;7.60;;
79755;SDS011;69239;50.678;12.280;2024-03-22T14:08:00;12.13;;;7.70;;
79755;SDS011;69239;50.678;12.280;2024-03-22T14:10:25;12.10;;;6.87;;
79755;SDS011;69239;50.678;12.280;2024-03-22T14:12:56;11.95;;;6.18;;
79755;SDS011;69239;50.678;12.280;2024-03-22T14:15:21;13.48;;;8.13;;
79755;SDS011;69239;50.678;12.280;2024-03-22T14:17:47;11.45;;;7.95;;
79755;SDS011;69239;50.678;12.280;2024-03-22T14:20:13;13.95;;;6.93;;
79755;SDS011;69239;50.678;12.280;2024-03-22T14:22:38;13.33;;;7.47;;
79755;SDS011;69239;50.678;12.280;2024-03-22T14:25:07;12.95;;;7.43;;